createdAt,value
2023-03-29T00:00:36.002Z,98790.00
2023-03-29T00:03:03.880Z,98790.50
2023-03-29T00:05:35.114Z,98789.78
2023-03-29T00:08:03.787Z,98787.50
2023-03-29T00:10:31.913Z,98784.84
2023-03-29T00:13:02.447Z,98784.94
2023-03-29T00:15:29.586Z,98786.34
2023-03-29T00:17:57.376Z,98771.59
2023-03-29T00:20:25.132Z,98780.16
2023-03-29T00:22:52.241Z,98791.16
2023-03-29T00:25:19.756Z,98781.34
2023-03-29T00:27:46.933Z,98776.03
2023-03-29T00:30:15.041Z,98780.56
2023-03-29T00:32:42.798Z,98773.31
2023-03-29T00:35:10.724Z,98771.53
2023-03-29T00:37:37.907Z,98763.25
2023-03-29T00:40:10.718Z,98764.69
2023-03-29T00:42:38.163Z,98768.59
2023-03-29T00:45:07.225Z,98765.25
2023-03-29T00:47:42.615Z,98761.78
2023-03-29T00:50:29.259Z,98767.53
2023-03-29T00:53:04.028Z,98764.84
2023-03-29T00:55:34.689Z,98764.84
2023-03-29T00:58:02.504Z,98762.38
2023-03-29T01:00:33.155Z,98757.81
2023-03-29T01:03:00.607Z,98761.22
2023-03-29T01:05:40.174Z,98760.97
2023-03-29T01:08:27.432Z,98757.16
2023-03-29T01:11:12.296Z,98770.19
2023-03-29T01:13:55.256Z,98751.75
2023-03-29T01:16:23.154Z,98757.56
2023-03-29T01:18:53.316Z,98761.03
2023-03-29T01:21:33.211Z,98763.66
2023-03-29T01:24:10.514Z,98761.31
2023-03-29T01:27:00.650Z,98760.88
2023-03-29T01:29:54.271Z,98749.78
2023-03-29T01:32:35.712Z,98755.00
2023-03-29T01:35:13.995Z,98751.47
2023-03-29T01:38:02.337Z,98752.84
2023-03-29T01:40:30.981Z,98744.06
2023-03-29T01:43:21.101Z,98748.16
2023-03-29T01:46:02.842Z,98742.06
2023-03-29T01:48:33.401Z,98740.06
2023-03-29T01:51:07.360Z,98735.28
2023-03-29T01:53:45.417Z,98735.94
2023-03-29T01:56:17.952Z,98731.25
2023-03-29T01:58:50.951Z,98735.03
2023-03-29T02:01:23.000Z,98732.50
2023-03-29T02:03:51.053Z,98726.00
2023-03-29T02:06:20.536Z,98720.66
2023-03-29T02:08:47.882Z,98721.75
2023-03-29T02:11:15.693Z,98722.09
2023-03-29T02:13:43.386Z,98714.03
2023-03-29T02:16:14.434Z,98712.19
2023-03-29T02:18:43.752Z,98707.69
2023-03-29T02:21:17.967Z,98715.28
2023-03-29T02:23:45.952Z,98706.91
2023-03-29T02:26:14.189Z,98701.00
2023-03-29T02:28:41.931Z,98702.47
2023-03-29T02:31:26.460Z,98695.94
2023-03-29T02:34:01.544Z,98692.41
2023-03-29T02:36:46.410Z,98690.72
2023-03-29T02:39:15.206Z,98681.53
2023-03-29T02:41:44.134Z,98678.81
2023-03-29T02:44:13.925Z,98677.94
2023-03-29T02:46:43.528Z,98674.56
2023-03-29T02:49:12.422Z,98680.63
2023-03-29T02:51:39.517Z,98675.16
2023-03-29T02:54:13.687Z,98677.22
2023-03-29T02:56:48.991Z,98667.91
2023-03-29T02:59:19.537Z,98667.06
2023-03-29T03:01:46.917Z,98669.91
2023-03-29T03:04:14.580Z,98671.78
2023-03-29T03:06:41.688Z,98672.91
2023-03-29T03:09:10.762Z,98662.69
2023-03-29T03:11:41.518Z,98659.44
2023-03-29T03:14:09.263Z,98658.34
2023-03-29T03:16:37.248Z,98650.88
2023-03-29T03:19:05.473Z,98648.41
2023-03-29T03:21:33.948Z,98652.25
2023-03-29T03:24:01.116Z,98642.69
2023-03-29T03:26:32.342Z,98640.75
2023-03-29T03:29:00.905Z,98635.78
2023-03-29T03:31:47.448Z,98630.41
2023-03-29T03:34:35.281Z,98627.78
2023-03-29T03:37:03.309Z,98626.41
2023-03-29T03:39:33.852Z,98622.50
2023-03-29T03:42:07.892Z,98608.88
2023-03-29T03:44:41.617Z,98610.59
2023-03-29T03:47:28.946Z,98603.28
2023-03-29T03:49:58.713Z,98597.56
2023-03-29T03:52:26.993Z,98601.94
2023-03-29T03:54:54.256Z,98596.72
2023-03-29T03:57:42.044Z,98583.03
2023-03-29T04:00:19.811Z,98580.88
2023-03-29T04:02:57.755Z,98580.34
2023-03-29T04:05:26.097Z,98572.09
2023-03-29T04:07:55.960Z,98561.38
2023-03-29T04:10:42.190Z,98566.56
2023-03-29T04:13:17.185Z,98564.03
2023-03-29T04:16:10.185Z,98549.75
2023-03-29T04:18:37.803Z,98548.06
2023-03-29T04:21:05.640Z,98542.78
2023-03-29T04:23:36.109Z,98538.84
2023-03-29T04:26:03.769Z,98533.16
2023-03-29T04:28:47.481Z,98519.78
2023-03-29T04:31:22.949Z,98515.47
2023-03-29T04:34:19.501Z,98526.31
2023-03-29T04:36:52.770Z,98512.81
2023-03-29T04:39:31.980Z,98514.72
2023-03-29T04:42:02.589Z,98509.06
2023-03-29T04:44:33.628Z,98495.75
2023-03-29T04:47:03.783Z,98494.16
2023-03-29T04:49:49.753Z,98485.72
2023-03-29T04:52:32.792Z,98482.41
2023-03-29T04:55:02.594Z,98477.22
2023-03-29T04:57:48.957Z,98473.22
2023-03-29T05:00:27.341Z,98462.06
2023-03-29T05:03:13.206Z,98464.31
2023-03-29T05:05:51.887Z,98456.13
2023-03-29T05:08:19.012Z,98455.34
2023-03-29T05:11:24.471Z,98454.34
2023-03-29T05:13:52.260Z,98446.72
2023-03-29T05:16:20.745Z,98436.63
2023-03-29T05:18:48.652Z,98439.13
2023-03-29T05:21:16.332Z,98431.25
2023-03-29T05:23:45.854Z,98424.97
2023-03-29T05:26:39.712Z,98422.00
2023-03-29T05:29:09.148Z,98416.78
2023-03-29T05:31:37.612Z,98407.81
2023-03-29T05:34:05.165Z,98416.25
2023-03-29T05:36:35.519Z,98414.91
2023-03-29T05:39:05.021Z,98394.97
2023-03-29T05:41:34.198Z,98391.16
2023-03-29T05:44:01.450Z,98388.72
2023-03-29T05:46:29.836Z,98381.06
2023-03-29T05:49:01.738Z,98381.34
2023-03-29T05:51:49.138Z,98364.41
2023-03-29T05:54:16.780Z,98373.41
2023-03-29T05:56:44.411Z,98366.31
2023-03-29T05:59:13.410Z,98370.66
2023-03-29T06:01:41.581Z,98352.38
2023-03-29T06:04:12.668Z,98353.47
2023-03-29T06:06:53.196Z,98343.13
2023-03-29T06:09:20.875Z,98348.28
2023-03-29T06:11:57.314Z,98339.56
2023-03-29T06:14:45.643Z,98326.19
2023-03-29T06:17:30.687Z,98319.34
2023-03-29T06:19:58.241Z,98321.53
2023-03-29T06:22:27.430Z,98322.09
2023-03-29T06:24:54.862Z,98308.69
2023-03-29T06:27:26.041Z,98302.97
2023-03-29T06:29:53.850Z,98293.34
2023-03-29T06:32:21.883Z,98293.88
2023-03-29T06:34:58.762Z,98289.22
2023-03-29T06:37:49.010Z,98285.91
2023-03-29T06:40:28.929Z,98274.47
2023-03-29T06:42:57.773Z,98260.56
2023-03-29T06:45:27.482Z,98262.19
2023-03-29T06:47:59.153Z,98257.00
2023-03-29T06:50:27.089Z,98239.75
2023-03-29T06:53:15.601Z,98241.63
2023-03-29T06:55:45.540Z,98230.94
2023-03-29T06:58:33.329Z,98225.38
2023-03-29T07:01:08.210Z,98221.72
2023-03-29T07:03:50.329Z,98217.22
2023-03-29T07:06:26.051Z,98208.53
2023-03-29T07:08:59.266Z,98205.91
2023-03-29T07:12:05.370Z,98206.59
2023-03-29T07:14:33.206Z,98201.13
2023-03-29T07:17:00.768Z,98184.91
2023-03-29T07:19:39.258Z,98181.53
2023-03-29T07:22:30.011Z,98176.56
2023-03-29T07:25:01.615Z,98172.41
2023-03-29T07:27:30.159Z,98164.66
2023-03-29T07:29:58.154Z,98165.13
2023-03-29T07:32:26.630Z,98158.94
2023-03-29T07:35:11.934Z,98157.63
2023-03-29T07:37:39.736Z,98146.91
2023-03-29T07:40:11.012Z,98146.44
2023-03-29T07:42:48.177Z,98138.78
2023-03-29T07:45:26.698Z,98127.75
2023-03-29T07:48:06.981Z,98128.34
2023-03-29T07:50:54.722Z,98123.19
2023-03-29T07:53:29.392Z,98124.91
2023-03-29T07:55:58.769Z,98111.63
2023-03-29T07:58:44.636Z,98113.34
2023-03-29T08:01:17.976Z,98097.94
2023-03-29T08:04:10.309Z,98090.94
2023-03-29T08:06:56.080Z,98093.38
2023-03-29T08:09:31.761Z,98087.91
2023-03-29T08:12:00.182Z,98082.13
2023-03-29T08:14:38.100Z,98078.78
2023-03-29T08:17:15.800Z,98074.03
2023-03-29T08:19:50.988Z,98070.75
2023-03-29T08:22:24.786Z,98078.47
2023-03-29T08:25:27.941Z,98063.28
2023-03-29T08:27:56.199Z,98065.69
2023-03-29T08:30:50.741Z,98054.66
2023-03-29T08:33:19.267Z,98044.22
2023-03-29T08:35:54.313Z,98045.84
2023-03-29T08:38:29.658Z,98039.56
2023-03-29T08:40:57.807Z,98042.66
2023-03-29T08:44:02.764Z,98032.44
2023-03-29T08:46:55.795Z,98024.44
2023-03-29T08:49:32.175Z,98015.22
2023-03-29T08:52:03.361Z,98014.25
2023-03-29T08:54:37.472Z,98012.53
2023-03-29T08:57:33.367Z,98016.78
2023-03-29T09:00:07.472Z,97996.81
2023-03-29T09:02:39.025Z,98006.09
2023-03-29T09:05:35.654Z,98000.63
2023-03-29T09:08:18.691Z,97988.91
2023-03-29T09:11:37.516Z,97991.16
2023-03-29T09:14:33.329Z,97982.56
2023-03-29T09:17:12.433Z,97974.81
2023-03-29T09:19:45.439Z,97972.06
2023-03-29T09:22:32.662Z,97951.28
2023-03-29T09:25:23.952Z,97958.81
2023-03-29T09:28:05.072Z,97951.19
2023-03-29T09:30:44.584Z,97952.09
2023-03-29T09:33:17.174Z,97940.09
2023-03-29T09:36:04.806Z,97939.38
2023-03-29T09:38:35.610Z,97933.59
2023-03-29T09:41:21.704Z,97935.84
2023-03-29T09:43:50.520Z,97922.97
2023-03-29T09:46:29.094Z,97923.97
2023-03-29T09:48:57.123Z,97915.75
2023-03-29T09:51:27.396Z,97918.00
2023-03-29T09:53:56.777Z,97902.06
2023-03-29T09:56:53.594Z,97906.38
2023-03-29T09:59:22.161Z,97906.88
2023-03-29T10:01:49.457Z,97888.59
2023-03-29T10:04:17.745Z,97887.28
2023-03-29T10:06:52.658Z,97889.44
2023-03-29T10:09:21.937Z,97892.84
2023-03-29T10:11:54.116Z,97881.47
2023-03-29T10:14:42.709Z,97878.50
2023-03-29T10:17:16.325Z,97877.50
2023-03-29T10:19:51.391Z,97876.47
2023-03-29T10:22:37.592Z,97880.03
2023-03-29T10:25:09.432Z,97868.47
2023-03-29T10:27:37.300Z,97864.91
2023-03-29T10:30:11.681Z,97864.78
2023-03-29T10:32:39.438Z,97859.91
2023-03-29T10:35:22.726Z,97860.72
2023-03-29T10:37:51.717Z,97859.09
2023-03-29T10:40:26.392Z,97853.41
2023-03-29T10:42:53.976Z,97845.81
2023-03-29T10:45:25.471Z,97843.06
2023-03-29T10:47:55.680Z,97846.00
2023-03-29T10:50:23.574Z,97837.00
2023-03-29T10:52:51.399Z,97834.06
2023-03-29T10:55:19.764Z,97830.81
2023-03-29T10:57:52.821Z,97832.78
2023-03-29T11:00:27.543Z,97834.50
2023-03-29T11:03:21.393Z,97824.16
2023-03-29T11:05:52.280Z,97817.38
2023-03-29T11:08:38.452Z,97821.53
2023-03-29T11:11:14.460Z,97812.56
2023-03-29T11:14:14.267Z,97812.13
2023-03-29T11:17:03.190Z,97806.19
2023-03-29T11:20:05.168Z,97806.56
2023-03-29T11:23:18.013Z,97796.06
2023-03-29T11:25:45.337Z,97802.38
2023-03-29T11:28:24.134Z,97803.97
2023-03-29T11:30:53.431Z,97802.03
2023-03-29T11:33:33.437Z,97789.38
2023-03-29T11:36:00.517Z,97797.63
2023-03-29T11:38:35.818Z,97780.09
2023-03-29T11:41:20.352Z,97785.09
2023-03-29T11:43:49.811Z,97783.13
2023-03-29T11:46:40.009Z,97780.50
2023-03-29T11:49:36.837Z,97780.75
2023-03-29T11:52:39.451Z,97774.06
2023-03-29T11:55:25.800Z,97771.19
2023-03-29T11:57:56.881Z,97782.13
2023-03-29T12:00:27.640Z,97766.22
2023-03-29T12:03:15.299Z,97771.59
2023-03-29T12:05:45.733Z,97770.28
2023-03-29T12:08:28.393Z,97759.34
2023-03-29T12:11:04.380Z,97764.50
2023-03-29T12:13:32.762Z,97763.78
2023-03-29T12:16:22.185Z,97765.34
2023-03-29T12:18:50.322Z,97766.47
2023-03-29T12:21:26.288Z,97764.81
2023-03-29T12:23:55.134Z,97776.28
2023-03-29T12:26:54.900Z,97753.59
2023-03-29T12:29:46.565Z,97762.16
2023-03-29T12:32:36.424Z,97756.63
2023-03-29T12:35:39.006Z,97752.56
2023-03-29T12:38:30.968Z,97762.38
2023-03-29T12:41:21.653Z,97759.22
2023-03-29T12:44:24.627Z,97757.75
2023-03-29T12:47:10.315Z,97760.38
2023-03-29T12:49:38.310Z,97764.19
2023-03-29T12:52:21.677Z,97761.16
2023-03-29T12:54:57.120Z,97759.22
2023-03-29T12:57:40.786Z,97757.94
2023-03-29T13:00:21.322Z,97757.31
2023-03-29T13:03:27.160Z,97764.81
2023-03-29T13:06:05.648Z,97758.84
2023-03-29T13:08:38.334Z,97770.56
2023-03-29T13:11:06.308Z,97772.44
2023-03-29T13:13:37.625Z,97765.75
2023-03-29T13:16:11.620Z,97765.09
2023-03-29T13:18:41.903Z,97769.88
2023-03-29T13:21:50.586Z,97762.84
2023-03-29T13:24:20.953Z,97767.78
2023-03-29T13:27:00.410Z,97762.75
2023-03-29T13:29:58.732Z,97762.63
2023-03-29T13:32:36.738Z,97770.47
2023-03-29T13:35:25.602Z,97757.56
2023-03-29T13:38:17.856Z,97771.88
2023-03-29T13:40:47.405Z,97767.28
2023-03-29T13:43:18.931Z,97763.00
2023-03-29T13:45:57.217Z,97765.44
2023-03-29T13:48:33.248Z,97768.47
2023-03-29T13:51:02.182Z,97764.41
2023-03-29T13:53:32.905Z,97764.13
2023-03-29T13:56:00.570Z,97770.38
2023-03-29T13:58:46.244Z,97755.69
2023-03-29T14:01:19.562Z,97758.09
2023-03-29T14:03:48.598Z,97758.63
2023-03-29T14:06:21.999Z,97750.44
2023-03-29T14:08:49.692Z,97757.22
2023-03-29T14:11:28.530Z,97756.38
2023-03-29T14:14:00.004Z,97749.25
2023-03-29T14:16:29.141Z,97751.38
2023-03-29T14:18:59.000Z,97751.63
2023-03-29T14:21:26.276Z,97751.31
2023-03-29T14:24:03.475Z,97737.41
2023-03-29T14:26:32.813Z,97745.47
2023-03-29T14:29:01.101Z,97748.09
2023-03-29T14:31:33.321Z,97738.00
2023-03-29T14:34:01.965Z,97742.84
2023-03-29T14:36:30.303Z,97745.81
2023-03-29T14:39:17.842Z,97742.50
2023-03-29T14:41:50.114Z,97753.56
2023-03-29T14:44:18.697Z,97740.75
2023-03-29T14:46:48.992Z,97746.38
2023-03-29T14:49:17.571Z,97742.50
2023-03-29T14:51:45.822Z,97744.03
2023-03-29T14:54:33.659Z,97746.16
2023-03-29T14:57:03.984Z,97737.94
2023-03-29T14:59:38.641Z,97739.53
2023-03-29T15:02:22.148Z,97737.84
2023-03-29T15:05:05.335Z,97735.66
2023-03-29T15:07:34.003Z,97730.19
2023-03-29T15:10:02.062Z,97736.94
2023-03-29T15:12:30.382Z,97740.16
2023-03-29T15:14:58.233Z,97734.34
2023-03-29T15:17:43.151Z,97729.44
2023-03-29T15:20:28.158Z,97722.59
2023-03-29T15:23:04.249Z,97723.34
2023-03-29T15:25:38.839Z,97716.81
2023-03-29T15:28:06.415Z,97710.81
2023-03-29T15:30:45.095Z,97713.50
2023-03-29T15:33:16.564Z,97707.28
2023-03-29T15:35:44.165Z,97709.91
2023-03-29T15:38:12.547Z,97701.19
2023-03-29T15:40:39.981Z,97694.06
2023-03-29T15:43:07.462Z,97702.94
2023-03-29T15:45:34.708Z,97700.69
2023-03-29T15:48:04.432Z,97712.00
2023-03-29T15:50:32.279Z,97711.38
2023-03-29T15:53:08.614Z,97716.16
2023-03-29T15:55:41.457Z,97723.59
2023-03-29T15:58:15.388Z,97722.16
2023-03-29T16:00:43.833Z,97716.84
2023-03-29T16:03:13.014Z,97718.66
2023-03-29T16:05:40.684Z,97715.31
2023-03-29T16:08:12.411Z,97717.13
2023-03-29T16:10:40.544Z,97709.75
2023-03-29T16:13:09.671Z,97701.59
2023-03-29T16:15:37.473Z,97695.06
2023-03-29T16:18:05.368Z,97696.94
2023-03-29T16:20:32.840Z,97696.38
2023-03-29T16:23:01.094Z,97692.84
2023-03-29T16:25:28.757Z,97685.47
2023-03-29T16:27:56.508Z,97692.44
2023-03-29T16:30:24.975Z,97684.84
2023-03-29T16:32:52.022Z,97678.88
2023-03-29T16:35:26.673Z,97675.94
2023-03-29T16:37:53.817Z,97685.66
2023-03-29T16:40:21.742Z,97686.16
2023-03-29T16:42:49.400Z,97687.94
2023-03-29T16:45:16.655Z,97684.56
2023-03-29T16:47:44.618Z,97679.56
2023-03-29T16:50:17.782Z,97662.97
2023-03-29T16:52:45.475Z,97662.41
2023-03-29T16:55:13.225Z,97677.78
2023-03-29T16:57:42.101Z,97666.88
2023-03-29T17:00:19.673Z,97660.03
2023-03-29T17:02:50.474Z,97671.44
2023-03-29T17:05:18.396Z,97668.41
2023-03-29T17:07:45.605Z,97658.25
2023-03-29T17:10:12.974Z,97651.66
2023-03-29T17:12:40.894Z,97647.06
2023-03-29T17:15:09.046Z,97652.47
2023-03-29T17:17:37.809Z,97650.81
2023-03-29T17:20:11.911Z,97648.25
2023-03-29T17:22:39.777Z,97640.91
2023-03-29T17:25:07.641Z,97644.34
2023-03-29T17:27:35.510Z,97643.66
2023-03-29T17:30:02.568Z,97651.41
2023-03-29T17:32:29.882Z,97641.34
2023-03-29T17:34:58.965Z,97637.03
2023-03-29T17:37:27.496Z,97643.22
2023-03-29T17:39:55.058Z,97631.41
2023-03-29T17:42:22.268Z,97636.22
2023-03-29T17:44:49.655Z,97626.13
2023-03-29T17:47:16.885Z,97629.69
2023-03-29T17:49:44.094Z,97629.88
2023-03-29T17:52:11.916Z,97632.50
2023-03-29T17:54:39.304Z,97630.03
2023-03-29T17:57:07.059Z,97634.03
2023-03-29T17:59:34.653Z,97632.41
2023-03-29T18:02:04.949Z,97630.66
2023-03-29T18:04:33.534Z,97629.16
2023-03-29T18:07:01.301Z,97632.22
2023-03-29T18:09:30.240Z,97626.97
2023-03-29T18:11:58.816Z,97630.00
2023-03-29T18:14:26.080Z,97625.81
2023-03-29T18:16:53.366Z,97625.16
2023-03-29T18:19:20.527Z,97630.41
2023-03-29T18:21:48.144Z,97624.34
2023-03-29T18:24:15.159Z,97621.97
2023-03-29T18:26:42.509Z,97620.81
2023-03-29T18:29:10.007Z,97617.19
2023-03-29T18:31:37.819Z,97619.25
2023-03-29T18:34:05.553Z,97624.31
2023-03-29T18:36:32.983Z,97629.91
2023-03-29T18:39:05.364Z,97622.78
2023-03-29T18:41:33.811Z,97615.41
2023-03-29T18:44:01.365Z,97617.28
2023-03-29T18:46:30.849Z,97608.88
2023-03-29T18:49:01.120Z,97615.53
2023-03-29T18:51:28.342Z,97619.28
2023-03-29T18:53:55.733Z,97615.19
2023-03-29T18:56:22.994Z,97612.97
2023-03-29T18:58:50.702Z,97617.28
2023-03-29T19:01:17.746Z,97604.53
2023-03-29T19:03:45.090Z,97603.34
2023-03-29T19:06:12.761Z,97599.50
2023-03-29T19:08:41.007Z,97601.97
2023-03-29T19:11:10.271Z,97600.56
2023-03-29T19:13:37.614Z,97599.97
2023-03-29T19:16:05.923Z,97595.06
2023-03-29T19:18:33.152Z,97586.53
2023-03-29T19:21:00.811Z,97585.94
2023-03-29T19:23:28.253Z,97586.41
2023-03-29T19:26:00.252Z,97577.38
2023-03-29T19:28:27.538Z,97584.03
2023-03-29T19:30:56.003Z,97577.72
2023-03-29T19:33:23.068Z,97581.47
2023-03-29T19:35:51.416Z,97586.84
2023-03-29T19:38:19.249Z,97579.25
2023-03-29T19:40:49.796Z,97584.63
2023-03-29T19:43:17.940Z,97580.63
2023-03-29T19:45:49.481Z,97573.47
2023-03-29T19:48:22.550Z,97578.69
2023-03-29T19:50:51.094Z,97568.66
2023-03-29T19:53:18.452Z,97561.41
2023-03-29T19:55:46.199Z,97556.88
2023-03-29T19:58:13.379Z,97565.50
2023-03-29T20:00:41.314Z,97564.47
2023-03-29T20:03:12.596Z,97570.19
2023-03-29T20:05:40.123Z,97565.03
2023-03-29T20:08:07.521Z,97565.50
2023-03-29T20:10:38.148Z,97551.97
2023-03-29T20:13:06.207Z,97556.50
2023-03-29T20:15:33.802Z,97558.84
2023-03-29T20:18:01.564Z,97554.97
2023-03-29T20:20:29.985Z,97544.34
2023-03-29T20:23:03.696Z,97547.25
2023-03-29T20:25:34.406Z,97543.75
2023-03-29T20:28:02.196Z,97552.25
2023-03-29T20:30:29.683Z,97543.81
2023-03-29T20:32:57.146Z,97551.88
2023-03-29T20:35:24.609Z,97543.81
2023-03-29T20:37:51.866Z,97546.50
2023-03-29T20:40:20.861Z,97548.00
2023-03-29T20:42:49.502Z,97545.44
2023-03-29T20:45:20.163Z,97534.19
2023-03-29T20:47:57.372Z,97541.88
2023-03-29T20:50:29.045Z,97531.59
2023-03-29T20:52:56.731Z,97535.69
2023-03-29T20:55:24.344Z,97533.69
2023-03-29T20:57:56.480Z,97524.66
2023-03-29T21:00:25.026Z,97533.41
2023-03-29T21:02:54.849Z,97530.13
2023-03-29T21:05:22.917Z,97538.25
2023-03-29T21:07:50.815Z,97527.59
2023-03-29T21:10:18.263Z,97531.19
2023-03-29T21:12:45.488Z,97526.25
2023-03-29T21:15:13.219Z,97525.22
2023-03-29T21:17:41.096Z,97517.63
2023-03-29T21:20:10.849Z,97524.78
2023-03-29T21:22:39.071Z,97523.97
2023-03-29T21:25:08.266Z,97523.88
2023-03-29T21:27:36.395Z,97521.56
2023-03-29T21:30:05.475Z,97515.53
2023-03-29T21:32:33.055Z,97508.91
2023-03-29T21:35:00.207Z,97515.09
2023-03-29T21:37:27.606Z,97520.44
2023-03-29T21:39:54.981Z,97517.53
2023-03-29T21:42:22.421Z,97517.66
2023-03-29T21:44:49.839Z,97519.66
2023-03-29T21:47:17.170Z,97515.72
2023-03-29T21:49:44.328Z,97513.63
2023-03-29T21:52:11.576Z,97517.03
2023-03-29T21:54:39.135Z,97508.28
2023-03-29T21:57:06.526Z,97511.38
2023-03-29T21:59:34.239Z,97510.31
2023-03-29T22:02:01.573Z,97510.69
2023-03-29T22:04:36.676Z,97514.19
2023-03-29T22:07:05.446Z,97506.34
2023-03-29T22:09:34.326Z,97515.00
2023-03-29T22:12:01.801Z,97501.56
2023-03-29T22:14:29.947Z,97508.13
2023-03-29T22:16:57.473Z,97502.75
2023-03-29T22:19:24.791Z,97509.75
2023-03-29T22:21:52.547Z,97496.56
2023-03-29T22:24:19.651Z,97504.16
2023-03-29T22:26:47.922Z,97499.59
2023-03-29T22:29:15.697Z,97502.09
2023-03-29T22:31:43.045Z,97502.91
2023-03-29T22:34:10.283Z,97498.59
2023-03-29T22:36:37.628Z,97500.81
2023-03-29T22:39:05.450Z,97487.63
2023-03-29T22:41:32.439Z,97497.31
2023-03-29T22:44:01.222Z,97496.47
2023-03-29T22:46:28.626Z,97500.22
2023-03-29T22:48:55.978Z,97494.84
2023-03-29T22:51:23.675Z,97503.13
2023-03-29T22:53:51.480Z,97496.34
2023-03-29T22:56:18.558Z,97495.28
2023-03-29T22:58:46.488Z,97495.09
2023-03-29T23:01:13.699Z,97498.19
2023-03-29T23:03:41.319Z,97497.56
2023-03-29T23:06:08.703Z,97502.31
2023-03-29T23:08:35.918Z,97503.53
2023-03-29T23:11:04.073Z,97512.94
2023-03-29T23:13:33.134Z,97503.72
2023-03-29T23:16:00.821Z,97505.34
2023-03-29T23:18:29.304Z,97502.19
2023-03-29T23:20:57.628Z,97513.28
2023-03-29T23:23:25.832Z,97507.50
2023-03-29T23:25:53.778Z,97510.91
2023-03-29T23:28:23.502Z,97510.56
2023-03-29T23:31:02.452Z,97508.41
2023-03-29T23:33:33.742Z,97509.13
2023-03-29T23:36:05.136Z,97505.78
2023-03-29T23:38:33.853Z,97507.44
2023-03-29T23:41:02.580Z,97503.13
2023-03-29T23:43:32.713Z,97506.56
2023-03-29T23:46:02.154Z,97505.16
2023-03-29T23:48:29.607Z,97497.13
2023-03-29T23:51:00.098Z,97492.72
2023-03-29T23:53:28.386Z,97490.25
2023-03-29T23:56:00.453Z,97490.56
2023-03-29T23:58:29.046Z,97493.22
